Terminal Aerodrome Forecast
Issued by NWS

Home | Current Version | Previous Version | Text Only | Print | Product List | Glossary On
Versions: 1 2 3 4 5 6 7 8 9 10 11 12 13 14 15 16 17 18 19 20 21 22 23 24
000
FTPA31 PHFO 282300
TAFJHM
TAF
PHJH 282339Z 2900/2924 05019G29KT P6SM -SHRA SCT030 BKN045
     FM290800 05012G22KT P6SM SCT025 BKN040
     FM292000 05019G29KT P6SM VCSH SCT030 BKN045
      AMD NOT SKED AFT 290400=

USA.gov is the U.S. government's official web portal to all federal, state and local government web resources and services.